Time;durP1;ratioP1;P1;durP2;ratioP2;P2;SDS_P1;SDS_P2;PMS_P1;PMS_P2;Temp;Humidity;BMP_temperature;BMP_pressure;BME280_temperature;BME280_humidity;BME280_pressure;Samples;Min_cycle;Max_cycle;Signal;HPM_P1;HPM_P2
2022/08/07 00:00:21;;;;;;;0.85;0.80;;;;;;;36.84;15.68;100724.41;4878040;29;20049;-76
2022/08/07 00:02:49;;;;;;;2.05;0.80;;;;;;;36.83;16.19;100711.03;4872375;29;20060;-79
2022/08/07 00:05:18;;;;;;;4.78;0.90;;;;;;;36.82;16.14;100720.13;4876694;29;20499;-80
2022/08/07 00:07:46;;;;;;;1.17;0.90;;;;;;;36.77;16.17;100712.41;4875151;29;20080;-80
2022/08/07 00:10:17;;;;;;;1.48;0.80;;;;;;;36.74;16.53;100711.78;4879186;29;20113;-82
2022/08/07 00:12:45;;;;;;;2.28;0.93;;;;;;;36.78;15.97;100708.72;4880417;29;20122;-78
2022/08/07 00:15:14;;;;;;;1.75;0.70;;;;;;;36.69;16.58;100714.84;4877249;29;20128;-78
2022/08/07 00:17:43;;;;;;;1.13;0.73;;;;;;;36.58;16.95;100706.75;4880275;29;20061;-79
2022/08/07 00:20:12;;;;;;;2.58;0.77;;;;;;;36.45;15.05;100707.75;4884436;29;20775;-79
2022/08/07 00:22:40;;;;;;;1.30;0.90;;;;;;;36.38;18.38;100709.22;4872134;29;20061;-77
2022/08/07 00:25:10;;;;;;;1.48;0.80;;;;;;;36.31;17.54;100699.03;4881693;29;20098;-76
2022/08/07 00:27:40;;;;;;;1.17;1.00;;;;;;;36.29;17.33;100696.50;4879191;29;20109;-77
2022/08/07 00:30:10;;;;;;;2.40;1.73;;;;;;;36.27;17.97;100695.75;4876601;29;20048;-78
2022/08/07 00:32:38;;;;;;;1.65;0.73;;;;;;;36.17;15.95;100692.06;4869142;29;20061;-77
2022/08/07 00:35:08;;;;;;;1.83;0.82;;;;;;;36.09;17.30;100698.03;4877818;29;20571;-79
2022/08/07 00:37:36;;;;;;;2.30;0.70;;;;;;;36.04;16.00;100689.47;4876067;29;20052;-78
2022/08/07 00:40:06;;;;;;;1.27;0.85;;;;;;;36.00;17.64;100696.91;4877040;29;20491;-75
2022/08/07 00:42:36;;;;;;;1.20;0.82;;;;;;;35.98;16.80;100693.50;4876847;29;20049;-78
2022/08/07 00:45:09;;;;;;;1.75;0.90;;;;;;;35.99;17.08;100691.69;4878508;29;20106;-77
2022/08/07 00:47:38;;;;;;;1.48;0.90;;;;;;;36.00;17.13;100691.53;4879920;28;20087;-77
2022/08/07 00:50:07;;;;;;;2.10;0.90;;;;;;;35.96;18.42;100692.75;4878760;29;20403;-77
2022/08/07 00:52:36;;;;;;;2.08;0.90;;;;;;;35.89;16.71;100687.97;4876873;29;20101;-78
2022/08/07 00:55:05;;;;;;;1.23;0.90;;;;;;;35.82;15.61;100677.69;4877171;29;20045;-79
2022/08/07 00:57:34;;;;;;;1.05;0.80;;;;;;;35.78;17.08;100680.72;4878663;29;20053;-76
2022/08/07 01:00:03;;;;;;;0.80;0.70;;;;;;;35.70;17.64;100677.78;4878425;29;20506;-77
2022/08/07 01:02:34;;;;;;;1.17;0.80;;;;;;;35.55;15.73;100669.91;4873708;29;20056;-76
2022/08/07 01:05:07;;;;;;;1.33;0.80;;;;;;;35.53;16.51;100682.63;4886509;29;20230;-75
2022/08/07 01:07:35;;;;;;;0.90;0.63;;;;;;;35.49;17.68;100680.28;4876809;29;20080;-75
2022/08/07 01:10:05;;;;;;;1.02;0.70;;;;;;;35.42;17.35;100680.75;4881250;29;20109;-76
2022/08/07 01:12:34;;;;;;;0.88;0.63;;;;;;;35.35;17.55;100674.13;4878086;29;20052;-75
2022/08/07 01:15:04;;;;;;;1.70;0.70;;;;;;;35.31;16.88;100667.25;4877827;29;20567;-77
2022/08/07 01:17:35;;;;;;;4.72;0.80;;;;;;;35.26;17.44;100671.28;4879859;29;20490;-75
2022/08/07 01:20:07;;;;;;;2.05;0.82;;;;;;;35.20;17.60;100664.50;4880539;29;20049;-78
2022/08/07 01:22:38;;;;;;;2.00;0.77;;;;;;;35.14;18.47;100660.47;4877457;29;20411;-75
2022/08/07 01:25:08;;;;;;;4.57;0.90;;;;;;;35.08;17.84;100655.50;4882071;29;20049;-77
2022/08/07 01:27:37;;;;;;;1.80;0.90;;;;;;;35.03;16.64;100650.47;4873371;29;20559;-74
2022/08/07 01:30:08;;;;;;;1.10;0.68;;;;;;;34.96;19.09;100651.91;4876669;29;20045;-76
2022/08/07 01:32:36;;;;;;;1.25;0.70;;;;;;;34.95;18.44;100657.41;4870920;29;20116;-74
2022/08/07 01:35:07;;;;;;;1.60;0.75;;;;;;;34.89;17.84;100660.53;4877117;29;20113;-75
2022/08/07 01:37:37;;;;;;;0.75;0.73;;;;;;;34.83;18.21;100657.34;4877023;29;20547;-75
2022/08/07 01:40:07;;;;;;;1.00;0.80;;;;;;;34.76;19.35;100656.06;4874448;29;20049;-74
2022/08/07 01:42:36;;;;;;;0.90;0.85;;;;;;;34.70;19.84;100656.50;4875667;29;20641;-75
2022/08/07 01:45:07;;;;;;;2.50;0.98;;;;;;;34.62;18.20;100645.50;4875630;29;20666;-74
2022/08/07 01:47:35;;;;;;;2.67;0.88;;;;;;;34.55;18.94;100655.78;4878766;28;20060;-76
2022/08/07 01:50:04;;;;;;;1.27;0.90;;;;;;;34.49;18.59;100642.78;4879205;29;20049;-76
2022/08/07 01:52:34;;;;;;;1.13;0.75;;;;;;;34.45;19.40;100652.03;4876860;29;20502;-74
2022/08/07 01:55:08;;;;;;;1.70;0.90;;;;;;;34.39;18.92;100648.00;4876047;29;20132;-77
2022/08/07 01:57:40;;;;;;;2.05;0.80;;;;;;;34.30;18.21;100643.28;4868844;29;20534;-75
2022/08/07 02:00:11;;;;;;;1.58;0.80;;;;;;;34.24;18.64;100643.72;4881835;29;20041;-74
2022/08/07 02:02:45;;;;;;;1.30;0.88;;;;;;;34.15;18.26;100645.22;4868453;29;20069;-73
2022/08/07 02:05:19;;;;;;;1.02;0.70;;;;;;;34.06;17.68;100645.00;4867324;29;20503;-75
2022/08/07 02:07:50;;;;;;;1.40;0.85;;;;;;;34.00;19.59;100646.31;4869623;29;20048;-77
2022/08/07 02:10:25;;;;;;;1.10;0.98;;;;;;;33.93;18.67;100648.56;4874714;29;20080;-75
2022/08/07 02:12:57;;;;;;;0.95;0.65;;;;;;;33.87;18.43;100646.28;4874454;29;20049;-74
2022/08/07 02:15:27;;;;;;;1.63;0.98;;;;;;;33.78;18.99;100653.16;4882207;29;20052;-73
2022/08/07 02:17:56;;;;;;;2.55;1.00;;;;;;;33.72;19.51;100647.34;4875461;29;20534;-74
2022/08/07 02:20:26;;;;;;;1.50;0.90;;;;;;;33.63;19.97;100650.69;4876755;29;20052;-77
2022/08/07 02:22:58;;;;;;;1.98;0.88;;;;;;;33.54;20.84;100655.69;4880683;29;20566;-74
2022/08/07 02:25:30;;;;;;;1.77;0.93;;;;;;;33.47;21.35;100659.75;4882208;29;20053;-77
2022/08/07 02:28:01;;;;;;;2.75;0.80;;;;;;;33.38;22.47;100660.38;4874670;29;20045;-73
2022/08/07 02:30:31;;;;;;;2.03;1.02;;;;;;;33.30;21.79;100662.72;4880719;29;20045;-73
2022/08/07 02:33:01;;;;;;;1.58;1.00;;;;;;;33.21;22.00;100655.28;4868315;29;20057;-72
2022/08/07 02:35:31;;;;;;;1.27;1.00;;;;;;;33.10;22.33;100659.56;4876252;29;20053;-72
2022/08/07 02:38:03;;;;;;;2.08;1.00;;;;;;;33.03;23.05;100665.38;4875925;29;20109;-72
2022/08/07 02:40:37;;;;;;;3.47;1.05;;;;;;;32.95;23.19;100663.22;4866699;29;20077;-73
2022/08/07 02:43:07;;;;;;;3.33;1.13;;;;;;;32.85;23.47;100667.44;4875692;29;20079;-73
2022/08/07 02:45:41;;;;;;;2.42;1.20;;;;;;;32.71;23.60;100671.91;4875354;29;20108;-71
2022/08/07 02:48:10;;;;;;;1.50;1.05;;;;;;;32.58;23.54;100665.63;4873604;29;20053;-71
2022/08/07 02:50:43;;;;;;;2.25;1.15;;;;;;;32.50;24.30;100681.28;4879047;29;20530;-72
2022/08/07 02:53:17;;;;;;;1.52;1.00;;;;;;;32.40;24.46;100681.00;4877594;29;20048;-72
2022/08/07 02:55:49;;;;;;;3.13;0.80;;;;;;;32.30;24.62;100683.41;4876063;29;20045;-73
2022/08/07 02:58:21;;;;;;;5.30;1.20;;;;;;;32.21;24.03;100678.63;4871847;29;20101;-72
2022/08/07 03:00:52;;;;;;;2.15;1.10;;;;;;;32.11;24.67;100688.16;4874423;29;20049;-71
2022/08/07 03:03:22;;;;;;;1.40;1.00;;;;;;;31.98;24.29;100684.53;4877486;29;20041;-72
2022/08/07 03:05:53;;;;;;;1.95;1.00;;;;;;;31.86;24.73;100689.63;4875094;29;20343;-71
2022/08/07 03:08:22;;;;;;;3.33;1.00;;;;;;;31.71;25.38;100685.22;4876132;29;20094;-74
2022/08/07 03:10:53;;;;;;;1.45;1.05;;;;;;;31.60;24.81;100701.06;4878740;29;20045;-72
2022/08/07 03:13:21;;;;;;;1.75;1.13;;;;;;;31.49;24.95;100697.19;4876099;29;20495;-71
2022/08/07 03:15:52;;;;;;;2.28;1.00;;;;;;;31.37;25.21;100697.88;4876393;29;20049;-72
2022/08/07 03:18:21;;;;;;;3.40;1.08;;;;;;;31.27;25.88;100702.91;4876066;29;20113;-72
2022/08/07 03:20:51;;;;;;;3.35;1.17;;;;;;;31.15;25.71;100703.59;4880253;29;20551;-71
2022/08/07 03:23:21;;;;;;;4.93;1.00;;;;;;;31.02;25.61;100703.47;4879243;29;20080;-73
2022/08/07 03:25:52;;;;;;;1.77;1.02;;;;;;;30.87;26.47;100709.66;4881000;29;20097;-74
2022/08/07 03:28:22;;;;;;;2.75;1.02;;;;;;;30.73;27.44;100710.41;4883887;29;20057;-73
2022/08/07 03:31:17;;;;;;;1.63;1.13;;;;;;;30.59;28.72;100711.16;4880113;29;20097;-73
2022/08/07 03:33:41;;;;;;;3.38;1.20;;;;;;;30.40;29.55;100710.47;4874628;29;20073;-72
2022/08/07 03:36:12;;;;;;;2.38;1.23;;;;;;;30.29;28.99;100713.69;4879253;29;20101;-73
2022/08/07 03:38:42;;;;;;;1.45;0.90;;;;;;;30.17;28.67;100715.19;4880040;29;20083;-72
2022/08/07 03:41:13;;;;;;;2.78;1.10;;;;;;;30.06;30.07;100714.91;4882204;29;20049;-74
2022/08/07 03:43:42;;;;;;;2.80;1.00;;;;;;;29.95;29.39;100719.94;4880941;29;20517;-73
2022/08/07 03:46:12;;;;;;;1.80;1.17;;;;;;;29.84;29.64;100723.13;4888729;29;20546;-74
2022/08/07 03:48:41;;;;;;;3.55;1.08;;;;;;;29.71;29.31;100722.91;4881614;28;20053;-74
2022/08/07 03:51:11;;;;;;;3.97;1.17;;;;;;;29.54;31.76;100726.38;4882722;29;20551;-74
2022/08/07 03:53:40;;;;;;;2.00;1.10;;;;;;;29.41;29.77;100728.81;4879952;29;20114;-72
2022/08/07 03:56:11;;;;;;;4.70;1.30;;;;;;;29.32;30.16;100733.72;4881841;29;20065;-75
2022/08/07 03:58:40;;;;;;;2.00;1.00;;;;;;;29.19;29.82;100731.66;4875328;29;20049;-76
2022/08/07 04:01:10;;;;;;;3.67;1.05;;;;;;;29.06;29.62;100738.47;4878344;29;20053;-74
2022/08/07 04:03:40;;;;;;;3.60;1.50;;;;;;;28.95;29.85;100744.31;4878428;29;20052;-73
2022/08/07 04:06:10;;;;;;;2.67;1.20;;;;;;;28.85;30.08;100748.38;4880753;29;20132;-75
2022/08/07 04:08:40;;;;;;;5.18;0.98;;;;;;;28.77;30.36;100745.19;4882561;29;20045;-75
2022/08/07 04:11:11;;;;;;;3.33;1.30;;;;;;;28.71;31.33;100746.34;4876685;29;20113;-75
2022/08/07 04:13:41;;;;;;;1.63;1.10;;;;;;;28.63;31.19;100744.97;4871899;29;20057;-76
2022/08/07 04:16:09;;;;;;;5.70;1.10;;;;;;;28.53;31.77;100742.72;4878149;29;20510;-75
2022/08/07 04:18:38;;;;;;;2.50;1.10;;;;;;;28.44;31.46;100751.09;4878270;29;20563;-76
2022/08/07 04:21:07;;;;;;;2.42;1.30;;;;;;;28.37;31.56;100760.28;4878605;29;20112;-75
2022/08/07 04:23:37;;;;;;;3.63;1.70;;;;;;;28.31;32.07;100752.56;4877730;29;20049;-74
2022/08/07 04:26:07;;;;;;;1.92;1.10;;;;;;;28.25;32.36;100763.50;4876953;29;20049;-75
2022/08/07 04:28:38;;;;;;;2.10;1.27;;;;;;;28.18;32.30;100761.09;4881433;29;20052;-74
2022/08/07 04:31:07;;;;;;;3.00;1.10;;;;;;;28.13;32.38;100762.22;4880942;29;20097;-75
2022/08/07 04:33:36;;;;;;;3.03;1.17;;;;;;;28.04;32.33;100766.16;4882136;29;20045;-75
2022/08/07 04:36:07;;;;;;;2.72;1.50;;;;;;;28.01;32.16;100766.28;4879345;29;20100;-74
2022/08/07 04:38:36;;;;;;;2.67;1.35;;;;;;;27.96;32.55;100769.13;4878259;29;20084;-74
2022/08/07 04:41:05;;;;;;;2.55;1.42;;;;;;;27.91;32.85;100773.78;4887071;29;20617;-75
2022/08/07 04:43:36;;;;;;;1.52;1.30;;;;;;;27.86;32.57;100769.63;4884158;29;20044;-74
2022/08/07 04:46:10;;;;;;;1.80;1.30;;;;;;;27.81;32.73;100772.44;4876544;29;20049;-75
2022/08/07 04:48:47;;;;;;;1.60;1.02;;;;;;;27.74;32.63;100771.81;4876056;29;20056;-73
2022/08/07 04:51:26;;;;;;;2.42;1.38;;;;;;;27.65;33.42;100766.88;4871096;29;20052;-74
2022/08/07 04:54:00;;;;;;;2.42;1.45;;;;;;;27.60;33.98;100770.66;4884728;29;20052;-75
2022/08/07 04:56:36;;;;;;;2.78;1.48;;;;;;;27.54;33.53;100774.44;4878335;29;20483;-70
2022/08/07 04:59:11;;;;;;;3.05;1.15;;;;;;;27.47;34.12;100772.97;4877473;29;20045;-70
2022/08/07 05:01:47;;;;;;;2.22;1.10;;;;;;;27.40;33.94;100780.31;4872560;29;20125;-72
2022/08/07 05:04:23;;;;;;;2.25;1.08;;;;;;;27.34;33.62;100776.09;4874976;29;20053;-73
2022/08/07 05:06:57;;;;;;;1.88;0.90;;;;;;;27.29;33.26;100778.06;4879790;29;20049;-73
2022/08/07 05:09:32;;;;;;;1.80;1.20;;;;;;;27.26;33.43;100786.19;4887626;29;20106;-75
2022/08/07 05:12:05;;;;;;;2.08;1.00;;;;;;;27.21;33.61;100782.81;4882878;29;20558;-74
2022/08/07 05:14:39;;;;;;;1.77;1.20;;;;;;;27.18;33.50;100780.25;4874424;29;20124;-72
2022/08/07 05:17:12;;;;;;;2.92;1.23;;;;;;;27.13;33.46;100793.72;4876404;29;20499;-73
2022/08/07 05:19:45;;;;;;;2.28;1.05;;;;;;;27.09;33.40;100791.25;4887904;29;20415;-73
2022/08/07 05:22:15;;;;;;;2.92;1.02;;;;;;;27.05;33.69;100800.25;4872066;29;20057;-74
2022/08/07 05:24:46;;;;;;;2.45;1.05;;;;;;;26.97;34.17;100789.06;4880218;29;20052;-73
2022/08/07 05:27:17;;;;;;;2.05;0.95;;;;;;;26.85;34.31;100793.91;4878221;29;20140;-72
2022/08/07 05:29:47;;;;;;;2.87;1.20;;;;;;;26.77;34.33;100789.81;4873256;29;20389;-73
2022/08/07 05:32:19;;;;;;;1.25;1.05;;;;;;;26.69;35.13;100796.28;4873640;29;20562;-73
2022/08/07 05:34:49;;;;;;;1.30;1.00;;;;;;;26.60;34.74;100798.41;4877136;29;20052;-73
2022/08/07 05:37:19;;;;;;;1.17;1.08;;;;;;;26.55;34.51;100795.91;4877530;29;20093;-73
2022/08/07 05:39:48;;;;;;;5.40;1.20;;;;;;;26.46;34.28;100797.06;4888475;29;20045;-73
2022/08/07 05:42:17;;;;;;;3.17;1.30;;;;;;;26.38;35.52;100793.81;4866677;29;20602;-74
2022/08/07 05:44:45;;;;;;;2.42;0.93;;;;;;;26.33;35.11;100788.69;4877622;29;20048;-72
2022/08/07 05:47:18;;;;;;;3.95;1.00;;;;;;;26.26;35.72;100783.66;4879008;29;20495;-73
2022/08/07 05:49:51;;;;;;;2.85;1.20;;;;;;;26.19;38.81;100792.75;4877925;29;20052;-74
2022/08/07 05:52:20;;;;;;;2.97;1.42;;;;;;;26.10;37.35;100784.19;4879283;29;20049;-72
2022/08/07 05:54:49;;;;;;;2.05;1.20;;;;;;;26.05;38.99;100790.56;4872045;29;20053;-73
2022/08/07 05:57:18;;;;;;;0.95;0.85;;;;;;;25.97;37.14;100787.31;4876383;29;20488;-72
2022/08/07 05:59:49;;;;;;;1.48;1.15;;;;;;;25.92;36.94;100793.63;4877218;29;20529;-73
2022/08/07 06:02:20;;;;;;;3.85;1.23;;;;;;;25.88;37.22;100788.47;4876462;29;20088;-73
2022/08/07 06:04:55;;;;;;;1.57;1.20;;;;;;;25.81;36.56;100786.91;4887713;29;20559;-72
2022/08/07 06:07:24;;;;;;;4.22;1.30;;;;;;;25.73;36.62;100784.53;4875916;29;20292;-70
2022/08/07 06:09:53;;;;;;;2.38;1.23;;;;;;;25.66;36.83;100791.81;4876357;29;20052;-72
2022/08/07 06:12:22;;;;;;;1.10;0.93;;;;;;;25.62;35.67;100791.97;4872246;29;20495;-72
2022/08/07 06:14:50;;;;;;;2.10;1.10;;;;;;;25.57;37.42;100792.13;4879044;29;20106;-71
2022/08/07 06:17:20;;;;;;;4.13;1.20;;;;;;;25.48;38.15;100790.63;4879235;29;20139;-72
2022/08/07 06:19:51;;;;;;;4.63;1.23;;;;;;;25.43;38.06;100797.00;4870126;29;20048;-72
2022/08/07 06:22:20;;;;;;;1.85;1.10;;;;;;;25.37;37.77;100800.69;4884920;29;20187;-72
2022/08/07 06:24:49;;;;;;;3.25;1.20;;;;;;;25.33;38.04;100799.03;4876912;29;20048;-71
2022/08/07 06:27:26;;;;;;;3.00;1.20;;;;;;;25.21;38.19;100781.75;4885465;29;20056;-72
2022/08/07 06:29:54;;;;;;;2.28;1.00;;;;;;;25.23;38.32;100805.56;4876083;29;20041;-72
2022/08/07 06:32:23;;;;;;;2.75;1.10;;;;;;;25.16;38.75;100810.13;4877899;29;20045;-70
2022/08/07 06:34:53;;;;;;;5.30;1.17;;;;;;;25.12;39.09;100805.84;4881301;29;20107;-71
2022/08/07 06:37:21;;;;;;;1.83;1.20;;;;;;;25.07;38.18;100813.06;4880635;29;20109;-74
2022/08/07 06:39:52;;;;;;;1.20;0.98;;;;;;;25.03;38.79;100812.25;4867392;29;20117;-70
2022/08/07 06:42:24;;;;;;;3.47;1.20;;;;;;;25.01;38.84;100810.56;4876100;29;20806;-71
2022/08/07 06:44:53;;;;;;;1.77;1.00;;;;;;;24.97;38.29;100808.94;4872199;29;20487;-71
2022/08/07 06:47:22;;;;;;;2.53;1.00;;;;;;;24.94;38.20;100814.31;4879619;29;20061;-71
2022/08/07 06:49:53;;;;;;;2.78;1.02;;;;;;;24.91;38.73;100815.28;4874868;29;20041;-72
2022/08/07 06:52:23;;;;;;;1.88;0.98;;;;;;;24.84;38.29;100809.28;4884190;29;20491;-70
2022/08/07 06:54:53;;;;;;;2.90;1.00;;;;;;;24.81;39.86;100819.97;4878979;29;20049;-71
2022/08/07 06:57:23;;;;;;;2.25;1.00;;;;;;;24.77;39.13;100812.16;4879693;29;20120;-73
2022/08/07 06:59:53;;;;;;;2.25;1.02;;;;;;;24.72;38.93;100817.59;4879859;29;20053;-73
2022/08/07 07:02:23;;;;;;;2.40;1.10;;;;;;;24.66;39.37;100815.97;4883305;29;20057;-71
2022/08/07 07:04:54;;;;;;;2.92;1.20;;;;;;;24.59;39.57;100813.56;4879050;29;20496;-73
2022/08/07 07:07:22;;;;;;;2.10;0.98;;;;;;;24.52;39.42;100812.00;4876835;29;20076;-73
2022/08/07 07:09:51;;;;;;;2.03;0.90;;;;;;;24.46;39.52;100810.31;4880061;29;20045;-74
2022/08/07 07:12:28;;;;;;;2.03;0.82;;;;;;;24.40;39.58;100808.72;4879702;29;20049;-72
2022/08/07 07:15:02;;;;;;;1.73;0.98;;;;;;;24.33;39.60;100809.81;4879546;29;20053;-72
2022/08/07 07:17:38;;;;;;;1.70;1.00;;;;;;;24.27;39.29;100817.91;4882695;29;20117;-74
2022/08/07 07:20:13;;;;;;;2.15;1.13;;;;;;;24.17;39.11;100812.00;4883070;29;20061;-74
2022/08/07 07:22:43;;;;;;;1.10;1.00;;;;;;;24.12;40.12;100813.00;4878799;29;20491;-73
2022/08/07 07:25:14;;;;;;;1.40;0.90;;;;;;;24.06;39.94;100813.19;4878632;29;20487;-72
2022/08/07 07:27:55;;;;;;;1.52;0.75;;;;;;;24.01;39.85;100818.56;4882844;29;20571;-72
2022/08/07 07:30:28;;;;;;;3.08;0.98;;;;;;;23.94;39.89;100814.34;4878662;29;20112;-73
2022/08/07 07:32:59;;;;;;;1.10;0.88;;;;;;;23.88;39.61;100820.66;4887549;29;20044;-73
2022/08/07 07:35:32;;;;;;;1.30;1.00;;;;;;;23.83;39.48;100826.03;4888613;29;20050;-73
2022/08/07 07:38:03;;;;;;;2.53;1.00;;;;;;;23.80;39.77;100825.22;4873848;29;20049;-73
2022/08/07 07:40:33;;;;;;;1.02;0.88;;;;;;;23.75;40.30;100829.75;4879157;29;20498;-72
2022/08/07 07:43:06;;;;;;;2.20;0.88;;;;;;;23.68;40.07;100828.16;4880193;29;20116;-73
2022/08/07 07:45:33;;;;;;;;;;;;;;;23.66;39.79;100829.94;4880867;29;20097;-72
2022/08/07 07:48:03;;;;;;;2.83;0.95;;;;;;;23.66;40.23;100832.59;4880765;28;20370;-72
2022/08/07 07:50:33;;;;;;;2.53;0.82;;;;;;;23.65;41.88;100834.38;4878914;29;20088;-73
2022/08/07 07:53:04;;;;;;;1.98;1.20;;;;;;;23.61;42.41;100838.00;4879588;29;20060;-71
2022/08/07 07:55:33;;;;;;;2.28;1.00;;;;;;;23.52;43.15;100839.06;4878889;29;20499;-73
2022/08/07 07:58:03;;;;;;;2.00;0.90;;;;;;;23.44;42.94;100846.31;4878888;29;20044;-73
2022/08/07 08:00:33;;;;;;;1.00;0.90;;;;;;;23.35;42.39;100833.31;4881961;29;20057;-72
2022/08/07 08:03:07;;;;;;;1.60;0.98;;;;;;;23.29;42.31;100836.94;4878520;29;20113;-71
2022/08/07 08:05:39;;;;;;;3.10;1.00;;;;;;;23.25;41.96;100839.66;4878879;29;20110;-72
2022/08/07 08:08:09;;;;;;;2.75;1.10;;;;;;;23.22;42.16;100835.34;4877306;29;20491;-72
2022/08/07 08:10:39;;;;;;;0.90;0.80;;;;;;;23.20;42.79;100834.50;4878746;29;20513;-73
2022/08/07 08:13:11;;;;;;;2.35;1.15;;;;;;;23.15;41.84;100839.00;4878116;29;20129;-72
2022/08/07 08:15:41;;;;;;;2.80;0.97;;;;;;;23.08;41.90;100833.00;4878432;29;20411;-71
2022/08/07 08:18:11;;;;;;;2.20;1.00;;;;;;;23.02;43.31;100841.06;4874448;29;20053;-73
2022/08/07 08:20:43;;;;;;;2.15;0.98;;;;;;;22.96;42.96;100836.72;4875348;29;20574;-72
2022/08/07 08:28:49;;;;;;;7.18;1.30;;;;;;;22.78;43.59;100829.19;4881919;29;20052;-74
2022/08/07 08:31:25;;;;;;;3.80;1.05;;;;;;;22.71;43.16;100827.56;4878400;29;20590;-72
2022/08/07 08:33:55;;;;;;;2.55;1.15;;;;;;;22.66;43.29;100827.66;4878629;29;20122;-72
2022/08/07 08:36:28;;;;;;;2.33;1.30;;;;;;;22.61;43.94;100828.63;4879297;29;20049;-74
2022/08/07 08:38:59;;;;;;;3.03;1.02;;;;;;;22.54;43.76;100830.50;4877902;29;20057;-73
2022/08/07 08:41:35;;;;;;;1.52;1.00;;;;;;;22.47;44.32;100824.50;4878571;29;20392;-71
2022/08/07 08:44:09;;;;;;;2.53;0.93;;;;;;;22.40;45.69;100824.63;4878921;29;20299;-71
2022/08/07 08:46:47;;;;;;;1.85;0.90;;;;;;;22.34;44.80;100823.00;4882862;29;20053;-71
2022/08/07 08:49:24;;;;;;;2.97;0.93;;;;;;;22.31;44.84;100831.81;4882989;28;20105;-71
2022/08/07 08:52:00;;;;;;;4.20;0.90;;;;;;;22.27;45.80;100827.50;4882115;29;20109;-72
2022/08/07 08:54:36;;;;;;;1.40;1.15;;;;;;;22.26;44.92;100832.78;4884697;29;20053;-71
2022/08/07 08:57:12;;;;;;;1.55;0.90;;;;;;;22.23;45.22;100825.81;4878622;29;20109;-72
2022/08/07 08:59:50;;;;;;;2.60;1.05;;;;;;;22.20;45.30;100831.09;4874750;29;20049;-73
2022/08/07 09:02:26;;;;;;;2.03;1.10;;;;;;;22.16;44.84;100826.78;4877520;29;20072;-72
2022/08/07 09:05:09;;;;;;;1.35;0.90;;;;;;;22.10;46.29;100834.78;4879821;29;20381;-72
2022/08/07 09:07:48;;;;;;;1.38;0.80;;;;;;;22.01;46.33;100829.66;4876371;29;20049;-71
2022/08/07 09:10:24;;;;;;;2.70;1.00;;;;;;;21.88;45.46;100819.34;4878261;29;20056;-73
2022/08/07 09:13:01;;;;;;;1.73;1.13;;;;;;;21.88;45.23;100832.50;4879061;29;20053;-73
2022/08/07 09:15:43;;;;;;;3.25;1.15;;;;;;;21.84;45.28;100828.19;4875812;29;20492;-72
2022/08/07 09:18:53;;;;;;;2.35;1.00;;;;;;;21.78;45.69;100827.41;4877163;29;20049;-73
2022/08/07 09:21:36;;;;;;;3.78;1.10;;;;;;;21.72;46.18;100828.38;4873799;29;20049;-73
2022/08/07 09:24:17;;;;;;;2.72;1.10;;;;;;;21.67;46.16;100824.91;4876523;29;20109;-72
2022/08/07 09:27:03;;;;;;;3.40;1.15;;;;;;;21.62;47.08;100832.03;4874787;29;20491;-73
2022/08/07 09:29:47;;;;;;;2.53;1.30;;;;;;;21.53;47.09;100831.28;4877499;29;20117;-72
2022/08/07 09:32:26;;;;;;;3.38;1.33;;;;;;;21.48;47.15;100824.34;4870762;29;20063;-71
2022/08/07 09:35:34;;;;;;;3.05;1.20;;;;;;;21.39;47.36;100827.06;4754591;27;9387030;-72
2022/08/07 09:38:12;;;;;;;2.28;1.63;;;;;;;21.33;49.16;100828.03;5048841;28;20525;-69
2022/08/07 09:40:58;;;;;;;2.33;1.40;;;;;;;21.26;49.61;100827.25;5048889;28;20052;-73
2022/08/07 09:43:41;;;;;;;1.63;1.30;;;;;;;21.25;50.20;100832.53;5032384;28;20922;-73
2022/08/07 09:46:21;;;;;;;;;;;;;;;21.22;49.66;100832.56;5030585;28;20088;-72
2022/08/07 09:48:58;;;;;;;1.50;1.17;;;;;;;21.19;50.44;100829.97;5023421;28;20374;-71
2022/08/07 09:51:44;;;;;;;4.03;1.30;;;;;;;21.16;49.99;100833.50;5035737;28;20041;-72
2022/08/07 09:54:20;;;;;;;1.95;1.50;;;;;;;21.12;50.14;100832.69;5028604;28;20050;-72
2022/08/07 09:57:22;;;;;;;1.70;1.33;;;;;;;21.07;50.27;100829.25;5027101;28;20057;-71
2022/08/07 10:00:10;;;;;;;1.70;1.23;;;;;;;21.02;50.76;100831.06;5036043;28;20053;-73
2022/08/07 10:03:02;;;;;;;2.47;1.45;;;;;;;20.98;50.92;100833.75;5023570;28;20052;-72
2022/08/07 10:06:03;;;;;;;3.73;1.40;;;;;;;20.92;49.56;100839.94;5025144;28;20404;-71
2022/08/07 10:09:07;;;;;;;1.85;1.30;;;;;;;20.85;50.27;100839.16;5019787;28;20041;-72
2022/08/07 10:12:11;;;;;;;1.90;1.05;;;;;;;20.81;49.83;100839.22;5025162;28;20045;-72
2022/08/07 10:15:25;;;;;;;3.17;1.10;;;;;;;20.77;49.41;100840.13;5018336;28;20052;-72
2022/08/07 10:18:28;;;;;;;1.23;1.08;;;;;;;20.70;49.59;100828.81;5027523;28;20112;-72
2022/08/07 10:21:12;;;;;;;1.15;0.98;;;;;;;20.64;49.57;100831.53;5001776;28;20054;-72
2022/08/07 10:24:20;;;;;;;1.20;1.00;;;;;;;20.53;49.04;100821.06;5017249;28;20570;-73
2022/08/07 10:27:05;;;;;;;1.58;0.90;;;;;;;20.53;49.06;100828.97;5026770;28;20045;-73
2022/08/07 10:29:59;;;;;;;2.47;1.35;;;;;;;20.48;49.82;100829.00;5024528;28;20483;-73
2022/08/07 10:32:48;;;;;;;1.65;1.10;;;;;;;20.43;49.90;100835.19;5019949;28;20077;-72
2022/08/07 10:35:27;;;;;;;1.70;1.00;;;;;;;20.38;49.82;100831.72;5049205;27;20053;-71
2022/08/07 10:38:07;;;;;;;2.90;1.10;;;;;;;20.33;49.95;100829.16;5043993;28;20137;-72
2022/08/07 10:40:43;;;;;;;2.13;1.00;;;;;;;20.29;50.34;100830.06;5053718;28;20045;-73
2022/08/07 10:43:22;;;;;;;2.70;1.05;;;;;;;20.24;50.19;100832.72;5041809;28;20046;-73
2022/08/07 10:45:56;;;;;;;2.85;1.10;;;;;;;20.21;50.28;100834.53;5035796;28;20517;-73
2022/08/07 10:48:39;;;;;;;3.63;1.10;;;;;;;20.17;49.68;100836.28;5024570;28;20045;-73
2022/08/07 10:51:12;;;;;;;2.13;1.20;;;;;;;20.07;49.69;100825.00;5035044;28;20041;-73
2022/08/07 10:53:51;;;;;;;2.53;0.98;;;;;;;20.13;50.74;100833.72;5030277;28;20057;-72
2022/08/07 10:56:33;;;;;;;1.90;0.98;;;;;;;20.08;49.54;100837.25;5038789;28;20045;-72
2022/08/07 10:59:12;;;;;;;1.95;1.00;;;;;;;20.07;49.53;100832.88;5032456;28;20053;-72
2022/08/07 11:01:50;;;;;;;3.03;1.92;;;;;;;20.07;49.27;100832.03;5029405;28;20041;-73
2022/08/07 11:04:31;;;;;;;1.88;1.00;;;;;;;20.07;48.59;100835.50;5032447;28;20124;-72
2022/08/07 11:07:07;;;;;;;0.90;0.70;;;;;;;20.06;48.63;100833.75;5031973;28;20077;-72
2022/08/07 11:09:41;;;;;;;2.50;1.00;;;;;;;20.07;48.73;100837.28;5045522;28;20049;-72
2022/08/07 11:12:19;;;;;;;3.28;0.82;;;;;;;20.07;49.15;100842.53;5041328;28;20132;-72
2022/08/07 11:14:52;;;;;;;1.65;0.90;;;;;;;20.06;48.95;100835.50;5028962;28;20077;-72
2022/08/07 11:17:31;;;;;;;1.33;0.77;;;;;;;20.04;48.27;100837.28;5030023;28;20123;-72
2022/08/07 11:20:04;;;;;;;1.67;0.90;;;;;;;19.99;49.24;100842.56;5024025;28;20076;-72
2022/08/07 11:22:36;;;;;;;3.22;1.10;;;;;;;19.98;49.75;100847.84;5033242;28;20499;-72
2022/08/07 11:25:17;;;;;;;2.50;1.30;;;;;;;19.94;50.26;100838.25;5035780;28;20057;-72
2022/08/07 11:27:54;;;;;;;2.17;1.00;;;;;;;19.91;49.86;100836.53;5027586;28;20045;-72
2022/08/07 11:30:29;;;;;;;1.15;0.70;;;;;;;19.90;50.00;100841.78;5024415;28;20045;-72
2022/08/07 11:33:03;;;;;;;4.03;1.10;;;;;;;19.86;50.38;100839.19;5050242;28;20053;-72
2022/08/07 11:35:36;;;;;;;2.55;1.00;;;;;;;19.82;50.08;100836.59;5034875;28;20045;-72
2022/08/07 11:38:11;;;;;;;0.95;0.82;;;;;;;19.78;50.15;100838.34;5026601;28;20052;-71
2022/08/07 11:40:49;;;;;;;3.25;1.00;;;;;;;19.72;50.14;100845.41;5027583;28;20049;-71
2022/08/07 11:43:25;;;;;;;8.68;1.17;;;;;;;19.64;51.44;100840.19;5033924;28;20049;-72
2022/08/07 11:46:12;;;;;;;2.05;1.73;;;;;;;19.53;53.21;100842.00;5032010;28;20053;-71
2022/08/07 11:49:03;;;;;;;2.63;1.30;;;;;;;19.39;54.48;100848.19;5033062;28;20049;-71
2022/08/07 11:51:45;;;;;;;2.08;1.38;;;;;;;19.31;56.13;100855.25;5022161;28;20042;-71
2022/08/07 11:54:36;;;;;;;5.97;3.17;;;;;;;19.24;56.05;100850.88;5041937;28;20107;-71
2022/08/07 11:57:17;;;;;;;2.63;1.48;;;;;;;19.21;55.68;100850.91;5032971;28;20627;-72
2022/08/07 12:00:10;;;;;;;2.05;1.35;;;;;;;19.17;55.85;100851.78;5043427;28;20056;-71
2022/08/07 12:03:03;;;;;;;2.33;1.48;;;;;;;19.09;56.50;100858.84;5025758;28;20565;-71